Time;durP1;ratioP1;P1;durP2;ratioP2;P2;SDS_P1;SDS_P2;PMS_P1;PMS_P2;Temp;Humidity;BMP_temperature;BMP_pressure;BME280_temperature;BME280_humidity;BME280_pressure;Samples;Min_cycle;Max_cycle;Signal;HPM_P1;HPM_P2
2022/06/17 00:01:37;;;;;;;1.98;1.10;;;23.10;79.10;;;;;;7396073;19;20161;-79
2022/06/17 00:04:03;;;;;;;2.80;1.48;;;23.10;79.60;;;;;;7395151;19;20646;-79
2022/06/17 00:06:36;;;;;;;2.15;1.42;;;23.10;78.80;;;;;;7394718;19;20131;-78
2022/06/17 00:09:03;;;;;;;1.58;1.30;;;23.20;79.10;;;;;;7394203;19;20141;-80
2022/06/17 00:11:36;;;;;;;1.42;1.33;;;23.10;79.10;;;;;;7395997;19;20658;-78
2022/06/17 00:14:09;;;;;;;1.67;1.42;;;22.90;79.60;;;;;;7397680;19;20159;-80
2022/06/17 00:16:35;;;;;;;2.90;1.35;;;22.80;79.80;;;;;;7394442;19;20161;-79
2022/06/17 00:19:00;;;;;;;2.88;1.70;;;22.80;79.90;;;;;;7392691;19;20154;-79
2022/06/17 00:21:33;;;;;;;4.05;1.35;;;22.80;80.20;;;;;;7392109;19;20131;-78
2022/06/17 00:24:00;;;;;;;2.47;1.40;;;22.80;80.80;;;;;;7393480;19;20915;-79
2022/06/17 00:26:26;;;;;;;3.03;1.23;;;22.80;80.70;;;;;;7390785;19;20562;-79
2022/06/17 00:28:52;;;;;;;2.58;1.02;;;22.70;81.10;;;;;;7390997;19;20130;-78
2022/06/17 00:31:19;;;;;;;2.55;1.27;;;22.20;81.90;;;;;;7394478;19;20143;-78
2022/06/17 00:33:45;;;;;;;2.13;1.40;;;22.30;83.10;;;;;;7394524;19;20160;-79
2022/06/17 00:36:15;;;;;;;1.95;1.40;;;22.10;82.40;;;;;;7391200;19;20485;-80
2022/06/17 00:38:41;;;;;;;1.63;1.33;;;22.30;83.70;;;;;;7390544;19;20171;-79
2022/06/17 00:41:26;;;;;;;1.42;1.33;;;22.40;82.80;;;;;;7391648;19;20154;-78
2022/06/17 00:43:52;;;;;;;1.75;1.20;;;22.40;82.90;;;;;;7393277;19;20154;-78
2022/06/17 00:46:45;;;;;;;2.40;1.40;;;22.50;83.10;;;;;;7393734;19;20548;-80
2022/06/17 00:49:22;;;;;;;1.40;1.23;;;22.40;83.40;;;;;;7394833;19;20621;-80
2022/06/17 00:51:55;;;;;;;1.50;1.20;;;22.40;83.20;;;;;;7394252;19;20150;-79
2022/06/17 00:54:26;;;;;;;1.67;1.00;;;22.20;82.90;;;;;;7393996;19;20207;-79
2022/06/17 00:56:52;;;;;;;2.00;1.40;;;21.90;84.90;;;;;;7393311;19;20149;-80
2022/06/17 00:59:18;;;;;;;2.10;1.52;;;22.10;84.40;;;;;;7394313;19;20539;-79
2022/06/17 01:02:01;;;;;;;1.65;1.30;;;22.20;84.30;;;;;;7394052;19;20135;-79
2022/06/17 01:04:51;;;;;;;2.42;1.30;;;22.20;83.60;;;;;;7394979;19;20487;-79
2022/06/17 01:07:46;;;;;;;1.67;1.20;;;22.20;83.30;;;;;;7389511;19;20150;-79
2022/06/17 01:10:13;;;;;;;2.03;1.40;;;22.10;83.70;;;;;;7392529;19;20159;-79
2022/06/17 01:12:58;;;;;;;1.98;1.35;;;22.10;84.10;;;;;;7394072;19;20127;-79
2022/06/17 01:15:27;;;;;;;2.78;1.35;;;22.00;84.50;;;;;;7394999;19;20243;-80
2022/06/17 01:17:53;;;;;;;2.17;1.20;;;22.00;84.80;;;;;;7390898;19;20182;-79
2022/06/17 01:20:21;;;;;;;1.85;1.33;;;22.20;84.10;;;;;;7388333;19;20579;-79
2022/06/17 01:22:51;;;;;;;1.95;1.30;;;22.20;84.00;;;;;;7395087;19;20134;-78
2022/06/17 01:25:23;;;;;;;1.30;1.20;;;22.10;84.30;;;;;;7392548;19;20139;-80
2022/06/17 01:28:10;;;;;;;1.55;1.08;;;22.10;85.30;;;;;;7394124;19;20138;-80
2022/06/17 01:30:38;;;;;;;1.58;1.17;;;22.00;84.90;;;;;;7391768;19;20578;-78
2022/06/17 01:33:22;;;;;;;1.20;1.10;;;21.90;85.30;;;;;;7394159;19;20131;-78
2022/06/17 01:35:58;;;;;;;2.40;1.50;;;21.80;85.20;;;;;;7392199;19;20171;-79
2022/06/17 01:38:24;;;;;;;2.08;1.40;;;21.40;87.00;;;;;;7391473;19;20130;-78
2022/06/17 01:40:52;;;;;;;1.58;1.27;;;21.60;86.80;;;;;;7391771;19;20135;-79
2022/06/17 01:43:19;;;;;;;2.63;1.35;;;21.80;86.80;;;;;;7393987;19;20143;-79
2022/06/17 01:46:01;;;;;;;2.97;1.20;;;21.80;86.60;;;;;;7389278;19;20548;-79
2022/06/17 01:48:32;;;;;;;1.80;1.15;;;21.90;86.00;;;;;;7393427;19;20141;-78
2022/06/17 01:51:00;;;;;;;1.20;1.02;;;22.00;85.80;;;;;;7392571;19;20138;-80
2022/06/17 01:53:30;;;;;;;2.22;1.15;;;22.00;85.70;;;;;;7393476;19;20598;-80
2022/06/17 01:56:08;;;;;;;1.88;1.42;;;21.90;85.70;;;;;;7392858;19;20431;-79
2022/06/17 01:58:40;;;;;;;2.85;1.40;;;22.00;86.00;;;;;;7388295;19;20582;-78
2022/06/17 02:01:08;;;;;;;1.80;1.10;;;21.90;86.10;;;;;;7390652;19;20134;-78
2022/06/17 02:03:43;;;;;;;1.30;1.10;;;21.80;86.20;;;;;;7390397;19;20160;-80
2022/06/17 02:06:23;;;;;;;3.08;1.40;;;21.90;85.90;;;;;;7388356;19;20162;-77
2022/06/17 02:08:49;;;;;;;3.45;1.33;;;21.80;86.30;;;;;;7390266;19;20488;-80
2022/06/17 02:11:16;;;;;;;1.77;1.40;;;21.80;86.30;;;;;;7391014;19;20142;-79
2022/06/17 02:13:41;;;;;;;1.40;1.23;;;21.70;86.50;;;;;;7390962;19;20620;-79
2022/06/17 02:16:08;;;;;;;1.40;1.20;;;21.70;86.90;;;;;;7390636;19;20199;-79
2022/06/17 02:18:35;;;;;;;1.33;1.20;;;21.70;87.20;;;;;;7385317;19;20139;-78
2022/06/17 02:21:05;;;;;;;1.42;1.10;;;21.10;87.70;;;;;;7389068;19;20162;-78
2022/06/17 02:23:32;;;;;;;2.40;1.20;;;20.70;89.40;;;;;;7391900;19;20155;-79
2022/06/17 02:26:00;;;;;;;1.67;1.25;;;20.90;89.60;;;;;;7392435;19;20647;-78
2022/06/17 02:28:29;;;;;;;3.05;1.27;;;21.00;89.70;;;;;;7389624;19;20190;-79
2022/06/17 02:30:56;;;;;;;3.08;1.40;;;21.20;89.60;;;;;;7390412;19;20202;-78
2022/06/17 02:33:23;;;;;;;1.52;1.40;;;21.30;89.40;;;;;;7385831;19;20169;-78
2022/06/17 02:36:07;;;;;;;2.63;1.48;;;21.40;88.90;;;;;;7390397;19;20236;-80
2022/06/17 02:38:36;;;;;;;3.42;1.30;;;21.50;89.00;;;;;;7389895;19;20146;-79
2022/06/17 02:41:07;;;;;;;1.15;1.00;;;21.50;89.20;;;;;;7393446;19;20594;-79
2022/06/17 02:43:42;;;;;;;2.50;1.58;;;21.50;89.30;;;;;;7392094;19;20145;-78
2022/06/17 02:46:17;;;;;;;3.45;1.23;;;21.50;89.30;;;;;;7389503;19;20138;-79
2022/06/17 02:48:54;;;;;;;2.00;1.05;;;21.50;89.60;;;;;;7390618;19;20146;-79
2022/06/17 02:51:22;;;;;;;2.33;1.20;;;21.40;90.00;;;;;;7389372;19;20150;-79
2022/06/17 02:53:48;;;;;;;1.65;1.38;;;21.40;89.90;;;;;;7390688;19;20146;-79
2022/06/17 02:56:24;;;;;;;1.20;1.10;;;21.40;90.00;;;;;;7386534;19;20481;-79
2022/06/17 02:59:08;;;;;;;1.50;1.27;;;21.40;90.00;;;;;;7389841;19;20155;-79
2022/06/17 03:01:36;;;;;;;1.73;1.23;;;21.40;90.20;;;;;;7389579;19;20167;-79
2022/06/17 03:04:11;;;;;;;1.70;1.60;;;21.40;90.20;;;;;;7390336;19;20158;-79
2022/06/17 03:06:40;;;;;;;3.00;1.20;;;21.30;90.30;;;;;;7391463;19;20149;-79
2022/06/17 03:09:30;;;;;;;1.58;1.27;;;21.20;90.40;;;;;;7390957;19;20582;-79
2022/06/17 03:12:01;;;;;;;3.45;1.45;;;21.20;90.30;;;;;;7388151;19;20156;-78
2022/06/17 03:14:30;;;;;;;2.58;1.50;;;21.00;90.40;;;;;;7388922;19;20158;-78
2022/06/17 03:17:02;;;;;;;2.50;1.52;;;20.80;91.00;;;;;;7387563;19;20143;-79
2022/06/17 03:19:30;;;;;;;2.00;1.60;;;20.90;90.80;;;;;;7389644;19;20174;-77
2022/06/17 03:21:57;;;;;;;1.40;1.30;;;20.90;90.80;;;;;;7386064;19;20206;-78
2022/06/17 03:24:30;;;;;;;1.25;1.15;;;21.00;90.80;;;;;;7389896;19;20131;-79
2022/06/17 03:27:07;;;;;;;2.33;1.27;;;20.70;90.90;;;;;;7389836;19;20156;-78
2022/06/17 03:29:34;;;;;;;2.13;1.20;;;20.70;91.00;;;;;;7387722;19;20151;-79
2022/06/17 03:32:06;;;;;;;1.65;1.20;;;20.50;91.10;;;;;;7396122;19;20603;-77
2022/06/17 03:34:36;;;;;;;1.90;1.23;;;20.50;91.40;;;;;;7398154;19;20221;-77
2022/06/17 03:37:08;;;;;;;1.58;1.30;;;20.50;91.60;;;;;;7392781;19;20198;-77
2022/06/17 03:39:37;;;;;;;1.70;1.40;;;20.60;91.50;;;;;;7394959;19;20531;-79
2022/06/17 03:42:11;;;;;;;1.58;1.38;;;20.70;91.40;;;;;;7398269;19;20246;-77
2022/06/17 03:44:43;;;;;;;1.42;1.23;;;20.70;91.50;;;;;;7395358;19;20126;-80
2022/06/17 03:47:23;;;;;;;3.17;1.60;;;20.80;91.60;;;;;;7393001;19;20153;-78
2022/06/17 03:49:57;;;;;;;2.90;1.35;;;20.90;91.50;;;;;;7396776;19;20486;-78
2022/06/17 03:52:39;;;;;;;3.13;1.90;;;20.80;91.70;;;;;;7396035;19;20161;-79
2022/06/17 03:55:13;;;;;;;2.22;1.40;;;20.80;91.80;;;;;;7394223;19;20138;-77
2022/06/17 03:57:41;;;;;;;1.45;1.30;;;20.80;91.80;;;;;;7392331;19;20138;-78
2022/06/17 04:00:34;;;;;;;2.75;1.70;;;20.80;91.80;;;;;;7393919;19;20171;-78
2022/06/17 04:03:03;;;;;;;2.10;1.60;;;20.80;91.90;;;;;;7393957;19;20179;-79
2022/06/17 04:05:30;;;;;;;1.38;1.23;;;20.80;91.90;;;;;;7391835;19;20146;-78
2022/06/17 04:07:56;;;;;;;3.22;1.50;;;20.80;92.00;;;;;;7393659;19;20206;-77
2022/06/17 04:10:25;;;;;;;1.77;1.10;;;20.70;91.70;;;;;;7393330;19;20134;-79
2022/06/17 04:12:52;;;;;;;2.03;1.50;;;20.70;91.90;;;;;;7395234;19;20150;-79
2022/06/17 04:15:47;;;;;;;2.70;2.00;;;20.40;92.50;;;;;;7391147;19;20146;-79
2022/06/17 04:18:13;;;;;;;2.95;1.67;;;20.40;92.80;;;;;;7395446;19;20153;-78
2022/06/17 04:20:46;;;;;;;4.03;1.70;;;20.40;93.10;;;;;;7392530;19;20167;-77
2022/06/17 04:23:24;;;;;;;2.97;1.58;;;20.30;93.10;;;;;;7395327;19;20173;-78
2022/06/17 04:26:18;;;;;;;2.75;1.40;;;20.50;92.80;;;;;;7390390;19;20143;-76
2022/06/17 04:29:01;;;;;;;2.97;1.50;;;20.50;92.80;;;;;;7397067;19;20139;-77
2022/06/17 04:31:28;;;;;;;1.40;1.30;;;20.70;92.70;;;;;;7394524;19;20637;-78
2022/06/17 04:33:55;;;;;;;1.52;1.25;;;20.80;92.20;;;;;;7393398;19;20176;-76
2022/06/17 04:36:34;;;;;;;3.03;1.40;;;20.50;92.10;;;;;;7389934;19;20146;-78
2022/06/17 04:39:00;;;;;;;3.60;1.80;;;20.60;92.60;;;;;;7395735;19;20146;-79
2022/06/17 04:41:31;;;;;;;2.65;1.40;;;20.60;92.50;;;;;;7394163;19;20143;-77
2022/06/17 04:43:58;;;;;;;2.50;1.35;;;20.70;91.50;;;;;;7391994;19;20154;-77
2022/06/17 04:46:35;;;;;;;2.28;1.40;;;20.60;91.70;;;;;;7392287;19;20147;-78
2022/06/17 04:49:02;;;;;;;5.05;1.40;;;20.60;91.90;;;;;;7387867;19;20138;-77
2022/06/17 04:51:29;;;;;;;2.97;1.65;;;20.70;91.70;;;;;;7394108;19;20142;-79
2022/06/17 04:53:56;;;;;;;2.33;1.17;;;20.80;91.90;;;;;;7393144;19;20143;-78
2022/06/17 04:56:32;;;;;;;1.77;1.40;;;20.70;92.00;;;;;;7391984;19;20154;-76
2022/06/17 04:58:58;;;;;;;2.10;1.23;;;20.80;92.00;;;;;;7387315;19;20169;-78
2022/06/17 05:01:25;;;;;;;1.75;1.40;;;20.80;91.90;;;;;;7390713;19;20591;-77
2022/06/17 05:03:57;;;;;;;1.58;1.20;;;20.80;91.50;;;;;;7389262;19;20185;-77
2022/06/17 05:06:23;;;;;;;1.63;1.10;;;20.90;91.40;;;;;;7389889;19;20167;-77
2022/06/17 05:09:01;;;;;;;2.65;1.30;;;20.90;91.60;;;;;;7392652;19;20127;-78
2022/06/17 05:11:32;;;;;;;1.52;1.25;;;20.80;91.30;;;;;;7392388;19;20677;-78
2022/06/17 05:14:22;;;;;;;1.60;1.20;;;20.70;91.20;;;;;;7393466;19;20154;-79
2022/06/17 05:16:48;;;;;;;2.85;1.30;;;20.70;91.00;;;;;;7391961;19;20627;-74
2022/06/17 05:19:14;;;;;;;1.20;0.98;;;20.70;91.20;;;;;;7389432;19;20155;-74
2022/06/17 05:21:40;;;;;;;2.53;1.10;;;20.50;91.70;;;;;;7391871;19;20142;-75
2022/06/17 05:24:09;;;;;;;2.53;1.20;;;20.60;91.60;;;;;;7388245;19;20146;-75
2022/06/17 05:26:35;;;;;;;2.30;1.30;;;20.80;91.40;;;;;;7392465;19;20135;-74
2022/06/17 05:29:01;;;;;;;2.13;1.10;;;20.80;91.40;;;;;;7389615;19;20159;-75
2022/06/17 05:31:28;;;;;;;1.63;1.20;;;20.80;91.10;;;;;;7391277;19;20497;-75
2022/06/17 05:33:54;;;;;;;2.60;1.52;;;20.60;91.80;;;;;;7391345;19;20605;-75
2022/06/17 05:36:19;;;;;;;1.52;1.10;;;20.70;91.70;;;;;;7390943;19;20151;-77
2022/06/17 05:38:45;;;;;;;2.08;1.13;;;20.70;91.70;;;;;;7387933;19;20283;-74
2022/06/17 05:41:20;;;;;;;3.80;1.25;;;20.60;91.80;;;;;;7391305;19;20623;-78
2022/06/17 05:43:46;;;;;;;2.60;1.60;;;20.70;91.80;;;;;;7391649;19;20134;-75
2022/06/17 05:46:12;;;;;;;1.95;1.30;;;20.70;92.00;;;;;;7389673;19;20163;-75
2022/06/17 05:48:38;;;;;;;2.13;1.50;;;20.70;92.00;;;;;;7389107;19;20139;-77
2022/06/17 05:51:04;;;;;;;3.38;1.20;;;20.80;91.80;;;;;;7387955;19;20141;-77
2022/06/17 05:53:30;;;;;;;1.42;1.13;;;20.90;91.60;;;;;;7385627;19;20150;-76
2022/06/17 05:55:56;;;;;;;4.30;1.42;;;20.90;91.80;;;;;;7389656;19;20139;-75
2022/06/17 05:58:22;;;;;;;4.28;1.50;;;20.90;92.00;;;;;;7385309;19;20138;-78
2022/06/17 06:00:48;;;;;;;1.92;1.50;;;20.90;92.40;;;;;;7389800;19;20146;-77
2022/06/17 06:03:23;;;;;;;2.40;1.30;;;20.90;92.00;;;;;;7386968;19;20178;-77
2022/06/17 06:05:49;;;;;;;3.85;1.65;;;21.00;92.00;;;;;;7388670;19;20138;-75
2022/06/17 06:08:15;;;;;;;2.65;1.27;;;21.20;91.80;;;;;;7396464;19;20149;-76
2022/06/17 06:10:43;;;;;;;3.15;1.50;;;21.30;91.80;;;;;;7395318;19;20127;-75
2022/06/17 06:13:16;;;;;;;3.22;1.48;;;21.60;91.50;;;;;;7389224;19;20138;-77
2022/06/17 06:15:45;;;;;;;3.47;1.88;;;22.40;90.80;;;;;;7387619;19;20150;-77
2022/06/17 06:18:19;;;;;;;2.40;1.60;;;23.10;90.00;;;;;;7385127;19;20534;-75
2022/06/17 06:20:44;;;;;;;1.50;1.25;;;23.60;87.90;;;;;;7386144;19;20178;-76
2022/06/17 06:23:10;;;;;;;3.97;1.33;;;24.10;87.00;;;;;;7385336;19;20169;-76
2022/06/17 06:25:36;;;;;;;2.38;1.23;;;24.70;86.20;;;;;;7388610;19;20541;-76
2022/06/17 06:28:11;;;;;;;2.85;1.40;;;25.50;83.80;;;;;;7387934;19;20633;-75
2022/06/17 06:30:37;;;;;;;2.10;1.50;;;26.00;82.40;;;;;;7387358;19;20605;-76
2022/06/17 06:33:03;;;;;;;2.25;1.27;;;26.10;81.60;;;;;;7388690;19;20541;-75
2022/06/17 06:35:35;;;;;;;1.58;1.35;;;26.20;81.70;;;;;;7389287;19;20155;-75
2022/06/17 06:38:03;;;;;;;2.55;1.27;;;26.20;81.20;;;;;;7389542;19;20142;-76
2022/06/17 06:40:29;;;;;;;2.35;1.58;;;26.20;81.40;;;;;;7390451;19;20541;-74
2022/06/17 06:42:56;;;;;;;2.13;1.83;;;25.50;82.00;;;;;;7387079;19;20518;-77
2022/06/17 06:45:31;;;;;;;3.35;1.58;;;25.30;82.80;;;;;;7384930;19;20159;-78
2022/06/17 06:47:59;;;;;;;4.50;1.73;;;25.70;82.40;;;;;;7390008;19;20219;-77
2022/06/17 06:50:28;;;;;;;2.92;1.48;;;25.90;81.50;;;;;;7388720;19;20227;-75
2022/06/17 06:52:54;;;;;;;2.45;1.35;;;26.00;81.30;;;;;;7389345;19;20143;-77
2022/06/17 06:55:20;;;;;;;2.10;1.42;;;26.10;81.20;;;;;;7387552;19;20180;-76
2022/06/17 06:57:52;;;;;;;3.95;1.13;;;26.30;80.90;;;;;;7386563;19;20146;-75
2022/06/17 07:00:25;;;;;;;6.40;4.28;;;26.50;80.20;;;;;;7386946;19;20151;-76
2022/06/17 07:02:52;;;;;;;1.42;1.33;;;26.40;80.00;;;;;;7390797;19;20175;-75
2022/06/17 07:05:18;;;;;;;1.90;1.40;;;26.50;79.60;;;;;;7385765;19;20162;-76
2022/06/17 07:07:46;;;;;;;3.33;1.50;;;26.30;79.50;;;;;;7396025;19;20614;-76
2022/06/17 07:10:16;;;;;;;2.67;1.38;;;26.20;79.60;;;;;;7393477;19;20159;-78
2022/06/17 07:12:42;;;;;;;3.22;1.48;;;25.70;80.60;;;;;;7396296;19;20225;-77
2022/06/17 07:15:10;;;;;;;2.42;1.40;;;25.60;80.80;;;;;;7395325;19;20139;-76
2022/06/17 07:17:36;;;;;;;2.85;1.50;;;25.90;81.00;;;;;;7392456;19;20183;-79
2022/06/17 07:20:03;;;;;;;3.80;1.67;;;26.10;80.60;;;;;;7394731;19;20504;-78
2022/06/17 07:22:29;;;;;;;2.35;1.50;;;26.50;80.00;;;;;;7407381;19;20159;-80
2022/06/17 07:24:54;;;;;;;1.98;1.50;;;26.80;79.40;;;;;;7400711;19;20142;-79
2022/06/17 07:27:20;;;;;;;2.53;1.27;;;26.50;79.70;;;;;;7395604;19;20150;-77
2022/06/17 07:29:46;;;;;;;3.15;1.30;;;26.70;79.60;;;;;;7398096;19;20665;-78
2022/06/17 07:32:12;;;;;;;3.05;1.90;;;26.90;79.10;;;;;;7395923;19;20135;-77
2022/06/17 07:34:38;;;;;;;2.92;1.50;;;26.80;79.30;;;;;;7395828;19;20135;-76
2022/06/17 07:39:54;;;;;;;1.80;1.50;;;26.50;79.60;;;;;;7396268;19;20139;-76
2022/06/17 07:42:37;;;;;;;2.83;1.65;;;26.30;80.10;;;;;;7397708;19;20171;-77
2022/06/17 07:45:09;;;;;;;2.58;1.50;;;26.30;80.10;;;;;;7399832;19;20155;-79
2022/06/17 07:47:35;;;;;;;1.75;1.40;;;26.50;80.10;;;;;;7394083;19;20138;-77
2022/06/17 07:50:00;;;;;;;2.45;1.30;;;26.90;79.30;;;;;;7390353;19;20139;-78
2022/06/17 07:52:26;;;;;;;2.83;1.58;;;27.10;79.20;;;;;;7397050;19;20154;-78
2022/06/17 07:54:52;;;;;;;3.03;1.75;;;27.30;79.00;;;;;;7396582;19;20141;-79
2022/06/17 07:57:18;;;;;;;4.20;1.92;;;27.30;79.20;;;;;;7392541;19;20147;-73
2022/06/17 07:59:43;;;;;;;2.25;2.00;;;27.20;80.40;;;;;;7393362;19;20154;-76
2022/06/17 08:02:09;;;;;;;7.80;1.73;;;27.20;79.40;;;;;;7390967;19;20172;-78
2022/06/17 08:04:36;;;;;;;4.05;1.80;;;27.30;79.10;;;;;;7390154;19;20178;-78
2022/06/17 08:07:03;;;;;;;5.07;1.98;;;27.40;79.00;;;;;;7393220;19;20159;-79
2022/06/17 08:09:29;;;;;;;4.68;1.70;;;27.20;79.20;;;;;;7393427;19;20634;-74
2022/06/17 08:11:54;;;;;;;3.88;2.15;;;27.10;79.70;;;;;;7394396;19;20219;-75
2022/06/17 08:14:20;;;;;;;3.80;2.63;;;27.10;79.80;;;;;;7391933;19;20155;-74
2022/06/17 08:16:46;;;;;;;4.10;2.33;;;27.30;79.80;;;;;;7396031;19;20551;-78
2022/06/17 08:19:13;;;;;;;3.33;1.85;;;27.40;79.10;;;;;;7390247;19;20139;-79
2022/06/17 08:21:40;;;;;;;2.45;1.90;;;27.40;79.30;;;;;;7394965;19;20201;-76
2022/06/17 08:24:08;;;;;;;6.50;2.40;;;27.60;79.60;;;;;;7396159;19;20143;-78
2022/06/17 08:26:34;;;;;;;2.33;1.58;;;27.50;78.70;;;;;;7401353;19;20131;-81
2022/06/17 08:29:00;;;;;;;3.80;2.08;;;27.60;78.60;;;;;;7397185;19;20143;-81
2022/06/17 08:31:26;;;;;;;2.75;2.10;;;27.60;78.40;;;;;;7393194;19;20146;-78
2022/06/17 08:33:52;;;;;;;4.40;1.70;;;27.60;79.10;;;;;;7394623;19;20138;-79
2022/06/17 08:36:21;;;;;;;2.70;1.90;;;27.80;79.30;;;;;;7395199;19;20142;-77
2022/06/17 08:38:55;;;;;;;2.35;1.80;;;27.90;78.30;;;;;;7393760;19;20202;-81
2022/06/17 08:41:31;;;;;;;4.53;2.13;;;27.70;78.30;;;;;;7394574;19;20134;-82
2022/06/17 08:44:12;;;;;;;6.20;1.80;;;28.00;78.00;;;;;;7394036;19;20142;-79
2022/06/17 08:47:09;;;;;;;2.35;1.73;;;28.20;76.80;;;;;;7394252;19;20256;-77
2022/06/17 08:50:02;;;;;;;3.33;1.52;;;28.30;75.70;;;;;;7393851;19;20142;-79
2022/06/17 08:52:46;;;;;;;3.53;1.60;;;28.10;74.00;;;;;;7397109;19;20154;-79
2022/06/17 08:55:12;;;;;;;2.28;1.55;;;27.80;75.10;;;;;;7392855;19;20143;-78
2022/06/17 08:58:13;;;;;;;3.47;1.20;;;27.60;74.80;;;;;;7391437;19;20476;-78
2022/06/17 09:00:51;;;;;;;1.85;1.40;;;27.50;74.50;;;;;;7397436;19;20158;-80
2022/06/17 09:03:35;;;;;;;2.58;1.23;;;27.30;74.30;;;;;;7399482;19;20146;-78
2022/06/17 09:06:15;;;;;;;1.20;1.10;;;27.30;73.60;;;;;;7395288;19;20154;-79
2022/06/17 09:09:10;;;;;;;3.13;1.02;;;27.20;73.60;;;;;;7393279;19;20142;-79
2022/06/17 09:12:06;;;;;;;1.27;0.93;;;27.10;72.50;;;;;;7394423;19;20142;-79
2022/06/17 09:15:02;;;;;;;1.42;1.27;;;26.80;72.90;;;;;;7393639;19;20143;-78
2022/06/17 09:17:41;;;;;;;3.00;1.52;;;26.60;74.20;;;;;;7390345;19;20182;-80
2022/06/17 09:20:10;;;;;;;2.88;1.40;;;27.00;74.70;;;;;;7393097;19;20161;-77
2022/06/17 09:22:49;;;;;;;1.50;1.35;;;27.40;73.60;;;;;;7399145;19;20142;-80
2022/06/17 09:25:21;;;;;;;3.38;1.50;;;27.40;73.50;;;;;;7395562;19;20474;-77
2022/06/17 09:27:50;;;;;;;3.60;1.70;;;27.10;74.00;;;;;;7395567;19;20146;-80
2022/06/17 09:30:46;;;;;;;5.05;1.50;;;27.00;73.80;;;;;;7397989;19;20141;-79
2022/06/17 09:33:26;;;;;;;3.22;1.40;;;26.90;74.20;;;;;;7396122;19;20624;-78
2022/06/17 09:35:59;;;;;;;1.55;1.20;;;26.90;73.70;;;;;;7399333;19;20134;-79
2022/06/17 09:38:30;;;;;;;5.78;3.15;;;26.80;73.30;;;;;;7395391;19;20149;-79
2022/06/17 09:41:07;;;;;;;3.45;1.38;;;26.70;73.40;;;;;;7397415;19;20489;-78
2022/06/17 09:44:05;;;;;;;2.60;1.90;;;26.80;73.60;;;;;;7394140;19;20664;-79
2022/06/17 09:46:44;;;;;;;2.60;1.42;;;26.90;73.90;;;;;;7392606;19;20153;-78
2022/06/17 09:49:35;;;;;;;5.03;1.60;;;27.00;73.70;;;;;;7395299;19;20146;-79
2022/06/17 09:52:15;;;;;;;3.22;1.52;;;26.90;74.80;;;;;;7393950;19;20143;-81
2022/06/17 09:55:13;;;;;;;1.83;1.30;;;26.90;74.00;;;;;;7394543;19;20153;-77
2022/06/17 09:58:06;;;;;;;3.80;1.30;;;26.90;74.40;;;;;;7393430;19;20472;-76
2022/06/17 10:00:44;;;;;;;2.70;1.83;;;26.90;74.10;;;;;;7393372;19;20126;-78
2022/06/17 10:03:19;;;;;;;2.88;1.67;;;27.10;73.80;;;;;;7393083;19;20138;-78
2022/06/17 10:05:54;;;;;;;2.70;1.33;;;27.20;74.00;;;;;;7394327;19;20189;-80
2022/06/17 10:08:32;;;;;;;2.83;1.33;;;27.00;73.30;;;;;;7396795;19;20217;-80
2022/06/17 10:11:21;;;;;;;1.20;1.10;;;26.90;73.40;;;;;;7399421;19;20127;-77
2022/06/17 10:14:06;;;;;;;1.65;1.27;;;26.70;72.70;;;;;;7393648;19;20146;-82
2022/06/17 10:19:54;;;;;;;3.72;1.83;;;26.60;73.60;;;;;;7392791;19;20183;-78
2022/06/17 10:22:31;;;;;;;1.63;1.30;;;26.50;73.20;;;;;;7391919;19;20158;-81
2022/06/17 10:24:59;;;;;;;1.95;1.10;;;26.50;73.10;;;;;;7391316;19;20160;-78
2022/06/17 10:27:33;;;;;;;3.40;2.15;;;26.50;73.60;;;;;;7392840;19;20139;-80
2022/06/17 10:30:12;;;;;;;3.67;1.60;;;26.70;73.50;;;;;;7392969;19;20161;-80
2022/06/17 10:32:42;;;;;;;2.97;1.40;;;26.70;73.70;;;;;;7392638;19;20160;-81
2022/06/17 10:35:28;;;;;;;2.13;1.40;;;26.60;73.40;;;;;;7393582;19;20145;-81
2022/06/17 10:37:58;;;;;;;3.50;1.40;;;26.60;73.30;;;;;;7393021;19;20142;-78
2022/06/17 10:40:26;;;;;;;2.20;1.38;;;26.60;72.70;;;;;;7399447;19;20203;-79
2022/06/17 10:42:55;;;;;;;2.25;1.33;;;26.60;73.20;;;;;;7399753;19;20629;-77
2022/06/17 10:45:21;;;;;;;1.65;1.38;;;26.90;72.60;;;;;;7399274;19;20139;-76
2022/06/17 10:47:54;;;;;;;2.75;1.35;;;26.90;71.70;;;;;;7404760;19;20134;-77
2022/06/17 10:50:27;;;;;;;2.05;1.20;;;26.90;72.00;;;;;;7401594;19;20139;-81
2022/06/17 10:53:08;;;;;;;1.33;1.00;;;26.70;71.20;;;;;;7402016;19;20643;-82
2022/06/17 10:55:36;;;;;;;1.45;1.10;;;26.80;71.70;;;;;;7397905;19;20143;-78
2022/06/17 10:58:20;;;;;;;1.63;1.23;;;27.00;71.10;;;;;;7395833;19;20539;-81
2022/06/17 11:01:11;;;;;;;1.67;1.20;;;26.90;70.60;;;;;;7399907;19;20138;-81
2022/06/17 11:03:39;;;;;;;1.42;1.27;;;27.10;71.10;;;;;;7399422;19;20167;-81
2022/06/17 11:06:23;;;;;;;2.53;1.42;;;27.30;69.80;;;;;;7398328;19;20150;-80
2022/06/17 11:08:49;;;;;;;1.75;1.25;;;27.40;69.00;;;;;;7396304;19;20504;-82
2022/06/17 11:14:25;;;;;;;1.50;1.27;;;27.20;68.70;;;;;;7398662;19;20173;-80
2022/06/17 11:16:51;;;;;;;3.00;1.40;;;27.30;68.00;;;;;;7398896;19;20499;-78
2022/06/17 11:19:21;;;;;;;1.40;1.10;;;27.20;67.60;;;;;;7397004;19;20557;-79
2022/06/17 11:21:52;;;;;;;2.17;1.60;;;27.10;68.50;;;;;;7400104;19;20242;-80
2022/06/17 11:24:30;;;;;;;2.13;1.40;;;27.20;69.00;;;;;;7398023;19;20155;-79
2022/06/17 11:27:22;;;;;;;1.40;1.20;;;27.40;67.50;;;;;;7398204;19;20154;-80
2022/06/17 11:29:50;;;;;;;1.38;1.15;;;27.60;66.50;;;;;;7398475;19;20273;-80
2022/06/17 11:32:19;;;;;;;2.40;1.20;;;27.70;66.50;;;;;;7396539;19;20162;-78
2022/06/17 11:34:52;;;;;;;0.90;0.90;;;27.70;65.30;;;;;;7394986;19;20594;-79
2022/06/17 11:37:21;;;;;;;4.35;1.10;;;27.60;65.40;;;;;;7396150;19;20143;-77
2022/06/17 11:40:05;;;;;;;2.05;1.13;;;27.60;65.10;;;;;;7396776;19;20251;-80
2022/06/17 11:42:31;;;;;;;1.33;1.20;;;27.70;65.40;;;;;;7398184;19;20151;-77
2022/06/17 11:45:01;;;;;;;1.20;0.90;;;27.80;64.60;;;;;;7396269;19;20205;-77
2022/06/17 11:47:30;;;;;;;3.45;0.90;;;27.80;64.60;;;;;;7398067;19;20216;-79
2022/06/17 11:50:00;;;;;;;1.85;1.55;;;28.00;64.40;;;;;;7397286;19;20167;-81
2022/06/17 11:52:33;;;;;;;1.20;1.10;;;28.00;64.30;;;;;;7396325;19;20135;-78
2022/06/17 11:55:00;;;;;;;2.15;0.70;;;28.00;63.70;;;;;;7397236;19;20242;-79
2022/06/17 11:57:31;;;;;;;1.15;0.85;;;27.90;62.90;;;;;;7393665;19;20202;-78
2022/06/17 12:00:00;;;;;;;1.52;1.00;;;27.80;62.90;;;;;;7392562;19;20139;-81
2022/06/17 12:02:27;;;;;;;1.60;0.80;;;27.90;62.80;;;;;;7396245;19;20161;-79
2022/06/17 12:05:19;;;;;;;1.00;0.82;;;28.00;62.10;;;;;;7397149;19;20181;-83
2022/06/17 12:07:55;;;;;;;2.42;1.05;;;28.00;61.20;;;;;;7393990;19;20221;-77
2022/06/17 12:10:46;;;;;;;1.23;0.82;;;28.00;60.80;;;;;;7394947;19;20154;-78
2022/06/17 12:13:23;;;;;;;1.60;1.00;;;28.00;62.20;;;;;;7395049;19;20492;-77
2022/06/17 12:16:01;;;;;;;1.20;0.90;;;28.10;60.70;;;;;;7393631;19;20130;-77
2022/06/17 12:18:36;;;;;;;1.10;1.00;;;28.10;61.40;;;;;;7395251;19;20142;-83
2022/06/17 12:21:30;;;;;;;1.25;1.00;;;28.20;61.70;;;;;;7391932;19;20592;-82
2022/06/17 12:24:17;;;;;;;3.92;1.00;;;28.30;62.80;;;;;;7395568;19;20143;-78
2022/06/17 12:27:11;;;;;;;1.48;1.00;;;28.40;63.10;;;;;;7395714;19;20134;-77
2022/06/17 12:29:59;;;;;;;2.22;0.95;;;28.60;63.10;;;;;;7394647;19;20138;-83
2022/06/17 12:32:33;;;;;;;3.15;1.33;;;28.60;62.90;;;;;;7395017;19;20134;-77
2022/06/17 12:35:14;;;;;;;1.70;1.60;;;28.70;61.60;;;;;;7397061;19;20142;-78
2022/06/17 12:37:54;;;;;;;1.35;1.05;;;28.70;61.30;;;;;;7392313;19;20272;-77
2022/06/17 12:40:31;;;;;;;1.50;1.05;;;28.60;61.20;;;;;;7393965;19;20488;-80
2022/06/17 12:43:06;;;;;;;2.35;1.20;;;28.50;61.50;;;;;;7395429;19;20142;-76
2022/06/17 12:45:57;;;;;;;0.95;0.70;;;28.60;60.70;;;;;;7390093;19;20144;-78
2022/06/17 12:48:42;;;;;;;2.50;0.80;;;28.50;60.70;;;;;;7394652;19;20495;-82
2022/06/17 12:54:33;;;;;;;1.90;1.52;;;28.40;60.60;;;;;;7393776;19;20213;-78
2022/06/17 12:57:33;;;;;;;1.40;1.20;;;28.60;60.50;;;;;;7391673;19;20206;-78
2022/06/17 13:00:12;;;;;;;3.53;0.82;;;28.80;60.30;;;;;;7389056;19;20167;-81
2022/06/17 13:02:59;;;;;;;1.50;0.70;;;28.70;59.60;;;;;;7393699;19;20142;-77
2022/06/17 13:05:36;;;;;;;1.35;0.85;;;28.50;60.70;;;;;;7390179;19;20171;-76
2022/06/17 13:08:09;;;;;;;1.45;1.05;;;28.70;59.80;;;;;;7395029;19;20142;-81
2022/06/17 13:10:41;;;;;;;4.20;2.13;;;28.70;58.70;;;;;;7394125;19;20135;-77
2022/06/17 13:13:21;;;;;;;1.58;0.90;;;28.70;59.40;;;;;;7394831;19;20149;-81
2022/06/17 13:15:53;;;;;;;0.98;0.90;;;28.60;58.60;;;;;;7395567;19;20142;-76
2022/06/17 13:18:38;;;;;;;1.83;1.45;;;28.50;59.70;;;;;;7389424;19;20154;-78
2022/06/17 13:21:14;;;;;;;1.98;1.10;;;28.70;59.30;;;;;;7392004;19;20193;-77
2022/06/17 13:24:18;;;;;;;2.83;1.00;;;28.80;59.90;;;;;;7397185;19;20178;-76
2022/06/17 13:27:03;;;;;;;3.58;0.98;;;28.80;59.70;;;;;;7391007;19;20150;-82
2022/06/17 13:29:35;;;;;;;1.70;1.55;;;28.80;59.50;;;;;;7393370;19;20173;-81
2022/06/17 13:32:16;;;;;;;1.52;1.20;;;28.80;59.40;;;;;;7394245;19;20489;-81